Earby, United Kingdom
Current Conditions -  °F | °C
As of 4:50 PM on Saturday 25 Oct 2014 (Local Time) from EGNM Reporting Station
Scattered Clouds Scattered Clouds  
Wind Chill: 12°   Ceiling: Unl
Heat Index: 12°   Visibility: 6mi
Dew Point:   Wind: 12mph
Humidity: 72%   Direction: 230°SW
Pressure: 29.88"   Gusts: NA
Location:  53.92°N, 2.14°W
Report Text: EGNM 251550Z 23010KT 190V270 9999 FEW018 SCT038 12/07 Q1012
Loading
Personal Weather Stations






























Interactive Weather Map
Tropical Storm Tracking
New forecast layout! Learn more

10-Day Weather Forecast

Advertisements
Track Severe Weather on mobile